Brezno, Slovakia
Current Conditions -  °F | °C
As of 5:00 AM on Wednesday 26 Nov 2014 (Local Time) from LZSL Reporting Station
Haze Haze  
Wind Chill: 34°   Ceiling: 4300
Heat Index: 34°   Visibility: 1.5mi
Dew Point: 34°   Wind: 0mph
Humidity: 100%   Direction: NA
Pressure: 30.27"   Gusts: NA
Location:  48.81°N, 19.64°E
Report Text: LZSL 260300Z 00000KT 2500 BR FEW011 OVC043 01/01 Q1025
Loading
Personal Weather Stations






























Interactive Weather Map New forecast layout! Learn more

10-Day Weather Forecast

Advertisements
Track Severe Weather on mobile